Wetterdaten: aktuell Donnerstag, 21.10.2021 00:05
Datum Zeit Temp. 2m rel. Feuchte Luftdruck Regen Wind Richtung Richtung Sonne ET UV-Index Solar Taupunkt Ben
21.10.2021 00:05 16,3 C 79 % 996,5 hPa 0,0 mm 6,7 km/h (2 Bft) O 84 0 min 0,0 mm 0,0 UV-I 0 W/m 12,6 C 15,5 km/h (3 Bft)
20.10.2021 23:05 16,3 C 79 % 997,9 hPa 0,0 mm 6,0 km/h (2 Bft) O 84 0 min 0,0 mm 0,0 UV-I 0 W/m 12,6 C 11,1 km/h (2 Bft)
20.10.2021 22:05 16,3 C 79 % 999,6 hPa 0,0 mm 3,6 km/h (1 Bft) O 84 0 min 0,0 mm 0,0 UV-I 0 W/m 12,6 C 8,9 km/h (2 Bft)
20.10.2021 21:05 16,5 C 78 % 1000,9 hPa 0,0 mm 6,9 km/h (2 Bft) O 84 0 min 0,0 mm 0,0 UV-I 0 W/m 12,6 C 13,3 km/h (3 Bft)
20.10.2021 20:05 16,8 C 77 % 1002,0 hPa 0,0 mm 5,3 km/h (1 Bft) O 84 0 min 0,0 mm 0,0 UV-I 0 W/m 12,7 C 11,1 km/h (2 Bft)
20.10.2021 19:05 16,8 C 77 % 1002,3 hPa 0,0 mm 7,2 km/h (2 Bft) O 84 0 min 0,0 mm 0,0 UV-I 0 W/m 12,7 C 15,5 km/h (3 Bft)
20.10.2021 18:05 17,0 C 78 % 1003,1 hPa 0,0 mm 8,0 km/h (2 Bft) O 84 0 min 0,0 mm 0,0 UV-I 9 W/m 13,1 C 20,0 km/h (4 Bft)
20.10.2021 17:05 17,5 C 77 % 1004,2 hPa 0,0 mm 6,7 km/h (2 Bft) O 84 0 min 0,1 mm 0,0 UV-I 32 W/m 13,4 C 15,5 km/h (3 Bft)
20.10.2021 16:05 17,7 C 76 % 1004,8 hPa 0,0 mm 10,3 km/h (2 Bft) O 84 0 min 0,1 mm 1,6 UV-I 89 W/m 13,4 C 31,1 km/h (5 Bft)
20.10.2021 15:05 17,9 C 74 % 1005,7 hPa 0,0 mm 14,7 km/h (3 Bft) O 84 0 min 0,1 mm 1,1 UV-I 81 W/m 13,2 C 28,9 km/h (5 Bft)
20.10.2021 14:05 17,7 C 76 % 1006,2 hPa 0,0 mm 13,7 km/h (3 Bft) O 84 0 min 0,1 mm 2,1 UV-I 76 W/m 13,4 C 26,7 km/h (4 Bft)
20.10.2021 13:05 16,8 C 78 % 1006,8 hPa 0,3 mm 6,2 km/h (2 Bft) O 84 0 min 0,1 mm 0,0 UV-I 42 W/m 12,9 C 15,5 km/h (3 Bft)
20.10.2021 12:05 16,8 C 73 % 1006,4 hPa 0,0 mm 11,7 km/h (2 Bft) O 84 0 min 0,1 mm 1,9 UV-I 94 W/m 11,9 C 24,4 km/h (4 Bft)
20.10.2021 11:05 16,4 C 74 % 1007,5 hPa 0,0 mm 9,9 km/h (2 Bft) O 84 0 min 0,1 mm 2,1 UV-I 106 W/m 11,8 C 31,1 km/h (5 Bft)
20.10.2021 10:05 16,0 C 78 % 1008,1 hPa 0,0 mm 6,7 km/h (2 Bft) O 84 0 min 0,0 mm 1,8 UV-I 78 W/m 12,2 C 20,0 km/h (4 Bft)
20.10.2021 09:05 15,3 C 77 % 1008,3 hPa 0,0 mm 7,7 km/h (2 Bft) O 84 0 min 0,0 mm 0,0 UV-I 52 W/m 11,3 C 13,3 km/h (3 Bft)
20.10.2021 08:05 14,8 C 78 % 1008,6 hPa 0,0 mm 5,9 km/h (2 Bft) O 84 0 min 0,0 mm 0,0 UV-I 0 W/m 11,0 C 11,1 km/h (2 Bft)
20.10.2021 07:05 14,8 C 78 % 1009,7 hPa 0,0 mm 7,0 km/h (2 Bft) O 84 0 min 0,0 mm 0,0 UV-I 0 W/m 11,0 C 13,3 km/h (3 Bft)
20.10.2021 06:05 14,0 C 81 % 1010,5 hPa 0,0 mm 7,9 km/h (2 Bft) O 84 0 min 0,0 mm 0,0 UV-I 0 W/m 10,8 C 17,8 km/h (3 Bft)
20.10.2021 05:05 12,4 C 86 % 1011,1 hPa 0,0 mm 2,8 km/h (1 Bft) O 84 0 min 0,0 mm 0,0 UV-I 0 W/m 10,1 C 4,4 km/h (1 Bft)
20.10.2021 04:05 12,1 C 88 % 1011,7 hPa 0,0 mm 2,1 km/h (1 Bft) O 84 0 min 0,0 mm 0,0 UV-I 0 W/m 10,2 C 4,4 km/h (1 Bft)
20.10.2021 03:05 12,6 C 87 % 1012,5 hPa 0,0 mm 1,4 km/h (1 Bft) O 84 0 min 0,0 mm 0,0 UV-I 0 W/m 10,5 C 4,4 km/h (1 Bft)
20.10.2021 02:05 13,0 C 86 % 1013,1 hPa 0,0 mm 0,8 km/h (0 Bft) O 84 0 min 0,0 mm 0,0 UV-I 0 W/m 10,7 C 2,2 km/h (1 Bft)
20.10.2021 01:05 13,4 C 86 % 1013,7 hPa 0,0 mm 5,1 km/h (1 Bft) O 84 0 min 0,0 mm 0,0 UV-I 0 W/m 11,1 C 13,3 km/h (3 Bft)
20.10.2021 01:00 13,5 C 86 % 1013,9 hPa 0,0 mm 4,4 km/h (1 Bft) O 84 0 min 0,0 mm 0,0 UV-I 0 W/m 11,2 C 6,7 km/h (2 Bft)
_ Min-Zeit 03:55 12:05 00:05 - 03:35 - - - - - - 03:45 03:35
Minimum _ 12,0 C 73 % 996,5 hPa - 0,0 km/h (0 Bft) - - - - - - 10,0 C 0,0 km/h (0 Bft)
_ Max-Zeit 14:45 03:55 01:00 12:30 13:30 - - 01:00 12:00 14:30 11:55 14:35 13:30
Maximum _ 18,1 C 88 % 1013,9 hPa 0,3 mm 19,1 km/h
O (3 Bft)
- - 0 min 0,1 mm 2,7 UV-I 231 W/m 13,7 C 48,9 km/h
O (6 Bft)
Durchschnitt _ 15,6 C 79 % 1006,7 hPa #0,3 mm 6,7 km/h (2 Bft) O - #0 min. #0,000 mm 0,0 UV-I 0 W/m 12,0 C 15,3 km/h (3 Bft)



© 1998 - 2021 www.pulheimwetter.de